Oakland, MD (21550)

1:18 AM EDT on September 30, 2016 (GMT -0400)
1 1/2 Mi. South of Terra Alta, Snowy Creek WV | | Change Station
Active Advisory: Wind Advisory

Elev 2842 ft 39.40 °N, 79.58 °W | Updated 31 seconds ago

Overcast
Overcast
54.9 °F
Feels Like 54.9 °F
N
4.2
Wind Variable Wind from NNW

Today
High -- | Low -- °F
--% Chance of Precip.
Yesterday
High -- | Low -- °F
Precip. -- in
Pressure 30.17 in
Visibility 2.0 miles
Clouds Overcast 200 ft
Dew Point 51 °F
Humidity 87%
Rainfall 0.02 in
Snow Depth Not available.
7:13 AM 7:00 PM
Waning Crescent, 1% visible
METAR K2G4 300500Z AUTO 10013G23KT 2SM BR OVC002 11/11 A3017 RMK AO1
Pressure 30.17 in
Visibility 2.0 miles
Clouds Overcast 200 ft
Dew Point 51 °F
Humidity 87%
Rainfall 0.02 in
Snow Depth Not available.
7:13 AM 7:00 PM
Waning Crescent, 1% visible
METAR K2G4 300500Z AUTO 10013G23KT 2SM BR OVC002 11/11 A3017 RMK AO1

10-Day Weather Forecast

Almanac

Astronomy

Sep. 30, 2016 Rise Set
Actual Time
Civil Twilight
Nautical Twilight
Astronomical Twilight
Moon
Length of Visible Light
Length of Day
Tomorrow will be .
, % of the Moon is Illuminated

Today's Extremes

State Highs State Lows

Community

WunderPhotos

Upload Photos

1,942,665 photos uploaded!

WunderBlog® & News

Nearby

Air Quality

  Air Quality AQ Index Pollutant
Not available.

Snow Depth

Station Depth Elevation

Earthquake Activity

City Distance Mag. Time & Date
Minimum magnitude displayed is 2.5.

Coastal Water Temperatures

Place Temperature

Stations

Nearby Weather Stations

Station Location Temp. Windchill Dew Point Humidity Wind Precip. Elev Updated Type
                   

Watches & Warnings

Wind Advisory
Issued: 9:38 PM EDT Sep. 29, 2016 – National Weather Service

... Wind Advisory remains in effect until noon EDT Friday...

* wind... east to southeast 15 to 30 mph with gusts of 45 to 50
mph.

* Period of strongest wind... 10 PM to 7 am.

* Impacts... strong wind can down tree limbs and power lines.
Trees rooted in saturated soil may be toppled. Use caution
while driving... especially over bridges and overpasses.

Precautionary/preparedness actions...

This Wind Advisory means that wind gusts of 45 to 50 mph are
expected.